Time;durP1;ratioP1;P1;durP2;ratioP2;P2;SDS_P1;SDS_P2;PMS_P1;PMS_P2;Temp;Humidity;BMP_temperature;BMP_pressure;BME280_temperature;BME280_humidity;BME280_pressure;Samples;Min_cycle;Max_cycle;Signal;HPM_P1;HPM_P2
2023/01/21 00:09:58;;;;;;;5.63;2.55;;;;;;;;;;20994735;28;20084;-62
2023/01/21 00:19:59;;;;;;;4.32;2.33;;;;;;;;;;20994462;28;20048;-62
2023/01/21 00:30:01;;;;;;;7.47;3.00;;;;;;;;;;20994745;28;20462;-61
2023/01/21 00:40:04;;;;;;;5.40;3.03;;;;;;;;;;20993598;28;20052;-61
2023/01/21 00:50:07;;;;;;;4.35;2.58;;;;;;;;;;20993531;28;20056;-62
2023/01/21 01:00:11;;;;;;;4.65;2.60;;;;;;;;;;21007671;28;20076;-62
2023/01/21 01:10:13;;;;;;;4.03;2.15;;;;;;;;;;21007710;28;20219;-61
2023/01/21 01:20:16;;;;;;;5.20;2.60;;;;;;;;;;21006849;28;20409;-61
2023/01/21 01:30:18;;;;;;;6.70;2.50;;;;;;;;;;21006697;28;20056;-60
2023/01/21 01:40:20;;;;;;;5.00;2.38;;;;;;;;;;21005542;28;20480;-61
2023/01/21 01:50:22;;;;;;;6.35;2.10;;;;;;;;;;21004563;28;20048;-61
2023/01/21 02:00:25;;;;;;;4.43;2.25;;;;;;;;;;21003160;28;20123;-62
2023/01/21 02:10:28;;;;;;;3.90;2.13;;;;;;;;;;21002056;28;20059;-62
2023/01/21 02:20:49;;;;;;;6.82;2.30;;;;;;;;;;21001509;28;20127;-61
2023/01/21 02:31:10;;;;;;;3.45;2.00;;;;;;;;;;21000272;28;20071;-63
2023/01/21 02:41:15;;;;;;;3.03;1.83;;;;;;;;;;21000053;28;20468;-62
2023/01/21 02:51:23;;;;;;;2.42;1.38;;;;;;;;;;20998152;28;20473;-61
2023/01/21 03:01:48;;;;;;;2.47;1.38;;;;;;;;;;20999292;28;20056;-61
2023/01/21 03:12:13;;;;;;;1.13;0.60;;;;;;;;;;20998409;28;20476;-62
2023/01/21 03:22:24;;;;;;;0.88;0.50;;;;;;;;;;20996421;28;20155;-63
2023/01/21 03:32:35;;;;;;;1.25;0.70;;;;;;;;;;20996605;28;20378;-63
2023/01/21 03:42:49;;;;;;;2.08;0.55;;;;;;;;;;20995943;28;20048;-62
2023/01/21 03:52:59;;;;;;;1.38;0.60;;;;;;;;;;20997041;28;20052;-64
2023/01/21 04:03:03;;;;;;;1.50;0.60;;;;;;;;;;20997814;28;20408;-61
2023/01/21 04:13:09;;;;;;;1.25;0.80;;;;;;;;;;20995744;28;20412;-61
2023/01/21 04:23:13;;;;;;;1.75;0.90;;;;;;;;;;20995207;28;20400;-61
2023/01/21 04:33:18;;;;;;;1.70;0.70;;;;;;;;;;21006820;28;20041;-63
2023/01/21 04:43:21;;;;;;;1.05;0.60;;;;;;;;;;21009728;28;20063;-63
2023/01/21 04:53:24;;;;;;;2.42;0.70;;;;;;;;;;21009227;28;20048;-62
2023/01/21 05:03:27;;;;;;;1.33;0.70;;;;;;;;;;21008246;28;20053;-65
2023/01/21 05:13:30;;;;;;;1.70;0.93;;;;;;;;;;21005887;28;20048;-66
2023/01/21 05:23:34;;;;;;;1.73;1.00;;;;;;;;;;21006466;28;20408;-66
2023/01/21 05:33:36;;;;;;;2.60;1.20;;;;;;;;;;21006607;28;20048;-65
2023/01/21 05:43:39;;;;;;;2.22;1.25;;;;;;;;;;21004137;28;20055;-65
2023/01/21 05:53:41;;;;;;;5.28;1.60;;;;;;;;;;21005229;28;20106;-64
2023/01/21 06:03:44;;;;;;;2.97;1.77;;;;;;;;;;21003057;28;20056;-66
2023/01/21 06:13:47;;;;;;;3.85;1.38;;;;;;;;;;21002749;28;20044;-66
2023/01/21 06:23:51;;;;;;;3.08;1.70;;;;;;;;;;21000949;28;20053;-65
2023/01/21 06:34:13;;;;;;;4.35;2.25;;;;;;;;;;21002874;28;20052;-64
2023/01/21 06:44:35;;;;;;;4.18;2.10;;;;;;;;;;20999379;28;20052;-65
2023/01/21 06:54:47;;;;;;;4.22;2.38;;;;;;;;;;20998010;28;20127;-65
2023/01/21 07:04:52;;;;;;;4.00;2.08;;;;;;;;;;20998061;28;20052;-63
2023/01/21 07:14:55;;;;;;;3.95;1.92;;;;;;;;;;20997989;28;20515;-64
2023/01/21 07:24:57;;;;;;;3.10;1.88;;;;;;;;;;20997519;28;20052;-65
2023/01/21 07:35:00;;;;;;;3.00;2.15;;;;;;;;;;20997431;28;20534;-65
2023/01/21 07:45:03;;;;;;;4.03;2.10;;;;;;;;;;20995673;28;20098;-65
2023/01/21 07:55:05;;;;;;;4.88;1.85;;;;;;;;;;20997018;28;20053;-65
2023/01/21 08:05:08;;;;;;;5.10;2.20;;;;;;;;;;21005789;28;20052;-60
2023/01/21 08:15:11;;;;;;;3.97;2.45;;;;;;;;;;21012877;28;20468;-65
2023/01/21 08:25:14;;;;;;;4.18;2.47;;;;;;;;;;21011336;28;20402;-66
2023/01/21 08:35:17;;;;;;;4.60;2.97;;;;;;;;;;21011485;28;20048;-66
2023/01/21 08:45:19;;;;;;;6.80;3.42;;;;;;;;;;21008628;28;20074;-64
2023/01/21 08:55:23;;;;;;;4.00;2.85;;;;;;;;;;21008798;28;20067;-61
2023/01/21 09:05:25;;;;;;;7.72;3.35;;;;;;;;;;21008685;28;20056;-66
2023/01/21 09:15:27;;;;;;;4.93;2.70;;;;;;;;;;21005898;28;20048;-66
2023/01/21 09:25:30;;;;;;;5.80;2.22;;;;;;;;;;21006020;28;20049;-61
2023/01/21 09:35:32;;;;;;;4.32;2.58;;;;;;;;;;21004891;28;20094;-61
2023/01/21 09:45:35;;;;;;;4.47;2.25;;;;;;;;;;21004281;28;20049;-64
2023/01/21 09:55:41;;;;;;;4.30;1.55;;;;;;;;;;21004319;28;20056;-63
2023/01/21 10:05:52;;;;;;;1.73;0.98;;;;;;;;;;21003203;28;20396;-65
2023/01/21 10:16:13;;;;;;;1.60;0.98;;;;;;;;;;21002585;28;20537;-64
2023/01/21 10:26:15;;;;;;;2.70;1.35;;;;;;;;;;21002586;28;20048;-62
2023/01/21 10:36:17;;;;;;;1.67;1.00;;;;;;;;;;21000882;28;20151;-62
2023/01/21 10:46:22;;;;;;;3.30;1.77;;;;;;;;;;20999761;28;20052;-63
2023/01/21 10:56:36;;;;;;;3.63;2.63;;;;;;;;;;20998767;28;20048;-62
2023/01/21 11:06:40;;;;;;;2.78;2.08;;;;;;;;;;20997846;28;20128;-62
2023/01/21 11:16:43;;;;;;;3.85;1.73;;;;;;;;;;20998190;28;20063;-62
2023/01/21 11:26:50;;;;;;;2.63;0.40;;;;;;;;;;20997256;28;20044;-62
2023/01/21 11:37:02;;;;;;;1.65;0.28;;;;;;;;;;20996444;28;20060;-63
2023/01/21 11:47:24;;;;;;;0.68;0.55;;;;;;;;;;20997035;28;20056;-61
2023/01/21 11:57:28;;;;;;;0.45;0.20;;;;;;;;;;20995975;28;20048;-63
2023/01/21 12:07:32;;;;;;;1.90;0.40;;;;;;;;;;20995002;28;20139;-62
2023/01/21 12:17:37;;;;;;;1.45;0.32;;;;;;;;;;20995745;28;20047;-61
2023/01/21 12:27:57;;;;;;;1.10;0.35;;;;;;;;;;20993940;28;20134;-61
2023/01/21 12:38:05;;;;;;;6.28;0.57;;;;;;;;;;20993909;28;20354;-62
2023/01/21 12:48:17;;;;;;;0.57;0.17;;;;;;;;;;20996743;28;20048;-62
2023/01/21 12:58:21;;;;;;;0.73;0.45;;;;;;;;;;21008510;28;20072;-62
2023/01/21 13:08:35;;;;;;;0.93;0.45;;;;;;;;;;21007649;28;20063;-62
2023/01/21 13:18:45;;;;;;;0.28;0.10;;;;;;;;;;21006583;28;20076;-62
2023/01/21 13:28:47;;;;;;;0.73;0.30;;;;;;;;;;21006036;28;20518;-61
2023/01/21 13:39:07;;;;;;;0.80;0.38;;;;;;;;;;21004205;28;20056;-63
2023/01/21 13:49:09;;;;;;;1.08;0.50;;;;;;;;;;21005343;28;20408;-62
2023/01/21 13:59:16;;;;;;;0.73;0.20;;;;;;;;;;21004294;28;20041;-62
2023/01/21 14:09:30;;;;;;;1.48;0.32;;;;;;;;;;21003149;28;20052;-63
2023/01/21 14:20:01;;;;;;;0.68;0.20;;;;;;;;;;21002176;28;20110;-63
2023/01/21 14:30:18;;;;;;;1.77;0.28;;;;;;;;;;20909717;28;20079;-62
2023/01/21 14:40:27;;;;;;;0.43;0.20;;;;;;;;;;20909328;28;20044;-61
2023/01/21 14:50:48;;;;;;;0.80;0.35;;;;;;;;;;20908804;28;20052;-62
2023/01/21 15:00:50;;;;;;;0.95;0.15;;;;;;;;;;20937817;28;20054;-62
2023/01/21 15:10:55;;;;;;;0.68;0.22;;;;;;;;;;20996461;28;20084;-62
2023/01/21 15:20:57;;;;;;;2.38;0.47;;;;;;;;;;20998755;28;20128;-62
2023/01/21 15:31:04;;;;;;;0.60;0.38;;;;;;;;;;20998197;28;20052;-64
2023/01/21 15:41:13;;;;;;;1.35;0.30;;;;;;;;;;20997980;28;20053;-62
2023/01/21 15:51:14;;;;;;;1.88;0.50;;;;;;;;;;20996719;28;20053;-62
2023/01/21 16:01:25;;;;;;;0.80;0.35;;;;;;;;;;20995970;28;20041;-62
2023/01/21 16:11:30;;;;;;;2.50;0.75;;;;;;;;;;20995155;28;20044;-62
2023/01/21 16:21:38;;;;;;;1.70;0.70;;;;;;;;;;20997147;28;20454;-64
2023/01/21 16:31:44;;;;;;;0.73;0.20;;;;;;;;;;21011044;28;20051;-62
2023/01/21 16:41:58;;;;;;;0.43;0.20;;;;;;;;;;21009980;28;20194;-62
2023/01/21 16:52:02;;;;;;;0.38;0.28;;;;;;;;;;21009382;28;20097;-62
2023/01/21 17:02:05;;;;;;;0.50;0.13;;;;;;;;;;21008711;28;20132;-62
2023/01/21 17:12:09;;;;;;;1.45;0.30;;;;;;;;;;21006850;28;20139;-62
2023/01/21 17:22:15;;;;;;;2.45;0.95;;;;;;;;;;21007949;28;20050;-62
2023/01/21 17:32:26;;;;;;;0.70;0.30;;;;;;;;;;21005626;28;20607;-62
2023/01/21 17:42:29;;;;;;;1.48;0.47;;;;;;;;;;21005252;28;20488;-62
2023/01/21 17:52:32;;;;;;;1.40;0.50;;;;;;;;;;21005438;28;20127;-61
2023/01/21 18:02:33;;;;;;;2.03;0.60;;;;;;;;;;21004760;28;20135;-62
2023/01/21 18:12:35;;;;;;;2.20;1.10;;;;;;;;;;21002907;28;20049;-66
2023/01/21 18:22:38;;;;;;;2.70;1.25;;;;;;;;;;21001076;28;20079;-63
2023/01/21 18:32:40;;;;;;;2.50;0.80;;;;;;;;;;21000669;28;20048;-61
2023/01/21 18:42:42;;;;;;;1.75;0.88;;;;;;;;;;20999859;28;20053;-61
2023/01/21 18:52:44;;;;;;;2.25;0.60;;;;;;;;;;20997963;28;20045;-62
2023/01/21 19:02:47;;;;;;;2.30;0.47;;;;;;;;;;20999221;28;20052;-62
2023/01/21 19:12:48;;;;;;;0.75;0.40;;;;;;;;;;20998344;28;20052;-63
2023/01/21 19:22:52;;;;;;;1.27;0.45;;;;;;;;;;20996982;28;20098;-63
2023/01/21 19:32:55;;;;;;;1.52;0.60;;;;;;;;;;20995080;28;20447;-62
2023/01/21 19:42:57;;;;;;;0.50;0.30;;;;;;;;;;20995848;28;20198;-62
2023/01/21 19:52:58;;;;;;;2.85;0.93;;;;;;;;;;20995134;28;20135;-61
2023/01/21 20:03:01;;;;;;;2.63;0.60;;;;;;;;;;20994541;28;20562;-65
2023/01/21 20:13:03;;;;;;;1.05;0.55;;;;;;;;;;20994769;28;20044;-63
2023/01/21 20:23:05;;;;;;;1.50;0.70;;;;;;;;;;20993961;28;20079;-62
2023/01/21 20:33:13;;;;;;;2.05;0.80;;;;;;;;;;20995070;28;20056;-63
2023/01/21 20:43:15;;;;;;;1.83;0.65;;;;;;;;;;20993441;28;20143;-62
2023/01/21 20:53:17;;;;;;;2.58;0.50;;;;;;;;;;20993711;28;20063;-61
2023/01/21 21:03:19;;;;;;;1.67;0.60;;;;;;;;;;20991948;28;20135;-62
2023/01/21 21:13:21;;;;;;;1.13;0.57;;;;;;;;;;21000277;28;20055;-64
2023/01/21 21:23:23;;;;;;;1.35;0.50;;;;;;;;;;21005556;28;20056;-62
2023/01/21 21:33:26;;;;;;;2.10;0.50;;;;;;;;;;21005559;28;20045;-63
2023/01/21 21:43:31;;;;;;;1.38;0.60;;;;;;;;;;21004545;28;20054;-62
2023/01/21 21:53:33;;;;;;;1.30;0.50;;;;;;;;;;21003917;28;20140;-63
2023/01/21 22:03:36;;;;;;;1.08;0.45;;;;;;;;;;21003881;28;20090;-61
2023/01/21 22:13:39;;;;;;;1.02;0.43;;;;;;;;;;21003320;28;20128;-62
2023/01/21 22:23:41;;;;;;;1.52;0.50;;;;;;;;;;21001513;28;20052;-61
2023/01/21 22:33:43;;;;;;;2.33;0.82;;;;;;;;;;21001156;28;20059;-60
2023/01/21 22:43:49;;;;;;;1.15;0.47;;;;;;;;;;21000558;28;20095;-60
2023/01/21 22:53:51;;;;;;;1.25;0.50;;;;;;;;;;20999710;28;20046;-63
2023/01/21 23:03:53;;;;;;;1.30;0.30;;;;;;;;;;20999468;28;20052;-61
2023/01/21 23:13:55;;;;;;;1.95;0.50;;;;;;;;;;20998053;28;20044;-62
2023/01/21 23:23:58;;;;;;;4.20;1.17;;;;;;;;;;20997196;28;20056;-62
2023/01/21 23:34:02;;;;;;;0.60;0.45;;;;;;;;;;20996524;28;20055;-62
2023/01/21 23:44:07;;;;;;;0.52;0.13;;;;;;;;;;20995948;28;20063;-62
2023/01/21 23:54:29;;;;;;;0.60;0.30;;;;;;;;;;20995855;28;20067;-61
